createdAt,value
2022-09-22T00:02:05.861Z,19.12
2022-09-22T00:05:08.383Z,19.13
2022-09-22T00:08:10.287Z,19.12
2022-09-22T00:11:20.266Z,19.16
2022-09-22T00:14:25.265Z,19.13
2022-09-22T00:17:27.133Z,19.03
2022-09-22T00:20:29.177Z,19.07
2022-09-22T00:23:32.009Z,19.04
2022-09-22T00:26:35.765Z,19.10
2022-09-22T00:29:37.710Z,19.03
2022-09-22T00:32:40.394Z,19.03
2022-09-22T00:35:42.385Z,19.07
2022-09-22T00:38:44.642Z,19.10
2022-09-22T00:41:49.446Z,18.99
2022-09-22T00:44:51.543Z,18.77
2022-09-22T00:47:53.583Z,18.79
2022-09-22T00:50:58.329Z,18.88
2022-09-22T00:54:04.672Z,18.95
2022-09-22T00:57:18.761Z,18.97
2022-09-22T01:00:21.334Z,19.00
2022-09-22T01:03:29.812Z,19.03
2022-09-22T01:06:32.305Z,19.07
2022-09-22T01:09:34.897Z,19.01
2022-09-22T01:12:37.822Z,19.08
2022-09-22T01:15:51.213Z,19.07
2022-09-22T01:19:28.316Z,19.09
2022-09-22T01:22:55.915Z,19.12
2022-09-22T01:26:16.553Z,19.13
2022-09-22T01:29:33.432Z,19.12
2022-09-22T01:32:49.994Z,19.08
2022-09-22T01:36:33.250Z,19.06
2022-09-22T01:39:44.609Z,19.04
2022-09-22T01:42:57.537Z,19.03
2022-09-22T01:46:03.270Z,19.01
2022-09-22T01:49:13.629Z,19.02
2022-09-22T01:52:22.617Z,19.04
2022-09-22T01:55:32.765Z,19.08
2022-09-22T01:58:41.050Z,18.91
2022-09-22T02:02:02.814Z,19.06
2022-09-22T02:05:18.594Z,18.97
2022-09-22T02:08:30.133Z,18.95
2022-09-22T02:11:32.113Z,18.96
2022-09-22T02:14:34.458Z,18.98
2022-09-22T02:17:36.601Z,18.91
2022-09-22T02:20:39.278Z,18.88
2022-09-22T02:23:42.745Z,18.87
2022-09-22T02:26:44.726Z,18.93
2022-09-22T02:29:52.789Z,18.98
2022-09-22T02:32:56.474Z,18.96
2022-09-22T02:36:17.292Z,18.93
2022-09-22T02:39:43.964Z,18.94
2022-09-22T02:43:23.283Z,18.92
2022-09-22T02:46:38.674Z,18.86
2022-09-22T02:49:43.992Z,18.88
2022-09-22T02:52:45.906Z,18.93
2022-09-22T02:55:48.434Z,18.89
2022-09-22T02:58:51.626Z,18.95
2022-09-22T03:01:56.045Z,18.95
2022-09-22T03:04:58.078Z,18.93
2022-09-22T03:08:00.118Z,18.87
2022-09-22T03:11:02.267Z,18.86
2022-09-22T03:14:04.291Z,18.92
2022-09-22T03:17:06.204Z,18.94
2022-09-22T03:20:11.731Z,18.98
2022-09-22T03:23:13.656Z,18.79
2022-09-22T03:26:15.655Z,18.78
2022-09-22T03:29:17.537Z,18.77
2022-09-22T03:32:19.479Z,18.78
2022-09-22T03:35:21.477Z,18.85
2022-09-22T03:38:23.681Z,18.86
2022-09-22T03:41:26.261Z,18.89
2022-09-22T03:44:28.200Z,18.81
2022-09-22T03:47:30.799Z,18.90
2022-09-22T03:50:32.698Z,18.88
2022-09-22T03:53:35.585Z,18.82
2022-09-22T03:56:38.559Z,18.81
2022-09-22T03:59:40.547Z,18.77
2022-09-22T04:02:42.733Z,18.83
2022-09-22T04:05:51.789Z,18.86
2022-09-22T04:08:53.755Z,18.92
2022-09-22T04:11:55.880Z,18.96
2022-09-22T04:14:57.847Z,18.98
2022-09-22T04:17:59.773Z,19.00
2022-09-22T04:21:01.694Z,19.00
2022-09-22T04:24:04.331Z,18.95
2022-09-22T04:27:19.529Z,18.94
2022-09-22T04:30:22.180Z,18.98
2022-09-22T04:33:24.793Z,18.98
2022-09-22T04:36:26.838Z,19.01
2022-09-22T04:39:29.096Z,19.04
2022-09-22T04:42:31.048Z,19.04
2022-09-22T04:45:37.366Z,19.00
2022-09-22T04:48:41.410Z,18.99
2022-09-22T04:51:43.398Z,18.97
2022-09-22T04:54:45.332Z,18.98
2022-09-22T04:57:48.700Z,18.99
2022-09-22T05:00:50.886Z,18.91
2022-09-22T05:03:53.581Z,18.93
2022-09-22T05:06:55.586Z,18.95
2022-09-22T05:09:57.658Z,18.95
2022-09-22T05:13:00.211Z,18.98
2022-09-22T05:16:03.164Z,19.02
2022-09-22T05:19:05.137Z,19.00
2022-09-22T05:22:07.152Z,19.04
2022-09-22T05:25:11.689Z,19.04
2022-09-22T05:28:13.689Z,19.02
2022-09-22T05:31:15.662Z,18.99
2022-09-22T05:34:17.773Z,19.00
2022-09-22T05:37:19.849Z,19.03
2022-09-22T05:40:24.232Z,19.06
2022-09-22T05:43:26.209Z,19.07
2022-09-22T05:46:28.916Z,19.01
2022-09-22T05:49:30.994Z,18.94
2022-09-22T05:52:33.394Z,18.88
2022-09-22T05:55:35.876Z,18.83
2022-09-22T05:58:37.845Z,18.87
2022-09-22T06:01:39.985Z,18.90
2022-09-22T06:04:41.920Z,18.97
2022-09-22T06:07:43.997Z,19.08
2022-09-22T06:10:45.909Z,19.11
2022-09-22T06:13:51.197Z,19.01
2022-09-22T06:16:53.551Z,18.75
2022-09-22T06:19:55.547Z,18.61
2022-09-22T06:22:57.486Z,18.65
2022-09-22T06:25:59.741Z,18.65
2022-09-22T06:29:01.720Z,18.69
2022-09-22T06:32:07.567Z,18.57
2022-09-22T06:35:11.526Z,18.73
2022-09-22T06:38:17.585Z,18.73
2022-09-22T06:41:19.759Z,18.85
2022-09-22T06:44:22.032Z,18.95
2022-09-22T06:47:24.106Z,19.07
2022-09-22T06:50:31.173Z,19.06
2022-09-22T06:53:33.267Z,18.79
2022-09-22T06:56:42.750Z,18.59
2022-09-22T06:59:45.727Z,18.66
2022-09-22T07:02:48.006Z,18.69
2022-09-22T07:06:01.296Z,18.84
2022-09-22T07:09:05.604Z,18.94
2022-09-22T07:12:07.853Z,18.98
2022-09-22T07:15:10.554Z,18.98
2022-09-22T07:18:12.509Z,19.11
2022-09-22T07:21:17.153Z,19.01
2022-09-22T07:24:19.134Z,18.97
2022-09-22T07:27:21.070Z,18.86
2022-09-22T07:30:23.077Z,19.05
2022-09-22T07:33:26.073Z,19.04
2022-09-22T07:36:30.654Z,18.97
2022-09-22T07:39:32.595Z,18.96
2022-09-22T07:42:34.608Z,18.84
2022-09-22T07:45:36.572Z,18.87
2022-09-22T07:48:46.988Z,18.90
2022-09-22T07:51:49.893Z,19.00
2022-09-22T07:54:51.880Z,19.03
2022-09-22T07:57:58.304Z,19.06
2022-09-22T08:01:08.408Z,18.98
2022-09-22T08:04:16.837Z,18.90
2022-09-22T08:07:18.739Z,18.99
2022-09-22T08:10:21.103Z,19.08
2022-09-22T08:13:24.371Z,19.09
2022-09-22T08:16:29.010Z,19.07
2022-09-22T08:19:32.209Z,19.09
2022-09-22T08:22:35.100Z,19.02
2022-09-22T08:25:37.061Z,19.02
2022-09-22T08:28:38.929Z,19.12
2022-09-22T08:31:42.403Z,18.89
2022-09-22T08:34:45.383Z,19.02
2022-09-22T08:37:50.418Z,19.13
2022-09-22T08:41:05.260Z,19.21
2022-09-22T08:44:07.130Z,19.17
2022-09-22T08:47:17.574Z,19.13
2022-09-22T08:50:58.238Z,19.13
2022-09-22T08:54:07.184Z,19.20
2022-09-22T08:57:21.436Z,19.18
2022-09-22T09:00:25.493Z,19.18
2022-09-22T09:03:49.171Z,19.13
2022-09-22T09:07:25.994Z,19.05
2022-09-22T09:10:49.018Z,19.07
2022-09-22T09:14:22.254Z,19.21
2022-09-22T09:17:35.237Z,19.29
2022-09-22T09:20:44.713Z,19.28
2022-09-22T09:27:21.754Z,19.10
2022-09-22T09:30:23.604Z,19.10
2022-09-22T09:33:40.220Z,19.05
2022-09-22T09:36:55.435Z,18.97
2022-09-22T09:40:02.182Z,19.01
2022-09-22T09:43:06.220Z,19.11
2022-09-22T09:46:54.590Z,19.11
2022-09-22T09:49:56.885Z,19.11
2022-09-22T09:52:59.905Z,19.08
2022-09-22T09:56:02.044Z,19.10
2022-09-22T09:59:25.351Z,19.14
2022-09-22T10:02:29.094Z,19.12
2022-09-22T10:05:33.588Z,19.18
2022-09-22T10:08:51.644Z,19.17
2022-09-22T10:12:01.562Z,19.28
2022-09-22T10:15:03.783Z,19.20
2022-09-22T10:18:24.285Z,18.95
2022-09-22T10:21:26.880Z,18.73
2022-09-22T10:24:33.148Z,18.77
2022-09-22T10:27:35.326Z,18.72
2022-09-22T10:30:37.924Z,18.64
2022-09-22T10:33:57.505Z,18.74
2022-09-22T10:37:01.188Z,18.87
2022-09-22T10:40:03.952Z,19.01
2022-09-22T10:43:13.825Z,19.08
2022-09-22T10:46:21.562Z,19.16
2022-09-22T10:49:31.420Z,19.17
2022-09-22T10:53:05.967Z,19.21
2022-09-22T10:56:09.975Z,19.28
2022-09-22T10:59:40.810Z,19.27
2022-09-22T11:02:45.547Z,19.30
2022-09-22T11:06:29.035Z,19.29
2022-09-22T11:10:01.861Z,19.32
2022-09-22T11:13:32.861Z,19.35
2022-09-22T11:16:43.675Z,19.38
2022-09-22T11:19:53.053Z,19.37
2022-09-22T11:23:07.143Z,19.45
2022-09-22T11:26:33.883Z,19.53
2022-09-22T11:29:45.428Z,19.47
2022-09-22T11:33:17.467Z,19.47
2022-09-22T11:36:25.071Z,19.40
2022-09-22T11:39:56.055Z,19.28
2022-09-22T11:43:07.106Z,19.19
2022-09-22T11:46:57.156Z,19.21
2022-09-22T11:50:10.901Z,19.28
2022-09-22T11:53:40.501Z,19.36
2022-09-22T11:56:48.627Z,19.40
2022-09-22T12:00:05.826Z,19.41
2022-09-22T12:03:18.563Z,19.34
2022-09-22T12:06:26.321Z,19.31
2022-09-22T12:09:39.600Z,19.24
2022-09-22T12:12:46.666Z,19.25
2022-09-22T12:16:10.312Z,19.18
2022-09-22T12:19:21.772Z,19.23
2022-09-22T12:22:36.429Z,19.30
2022-09-22T12:25:54.556Z,19.31
2022-09-22T12:28:58.788Z,19.34
2022-09-22T12:32:01.174Z,19.34
2022-09-22T12:35:04.532Z,19.32
2022-09-22T12:38:06.542Z,19.33
2022-09-22T12:41:08.715Z,19.33
2022-09-22T12:44:15.392Z,19.36
2022-09-22T12:47:52.483Z,19.41
2022-09-22T12:51:15.824Z,19.42
2022-09-22T12:54:23.706Z,19.43
2022-09-22T12:57:27.497Z,19.44
2022-09-22T13:00:39.725Z,19.44
2022-09-22T13:03:49.156Z,19.45
2022-09-22T13:06:53.017Z,19.42
2022-09-22T13:10:23.091Z,19.44
2022-09-22T13:13:40.046Z,19.43
2022-09-22T13:16:42.179Z,19.34
2022-09-22T13:19:56.044Z,19.25
2022-09-22T13:23:05.765Z,19.12
2022-09-22T13:26:12.469Z,19.13
2022-09-22T13:29:14.390Z,19.14
2022-09-22T13:32:26.881Z,19.18
2022-09-22T13:35:36.401Z,19.21
2022-09-22T13:38:51.174Z,18.94
2022-09-22T13:41:59.346Z,18.82
2022-09-22T13:45:08.173Z,18.80
2022-09-22T13:48:15.646Z,18.78
2022-09-22T13:51:17.806Z,18.66
2022-09-22T13:54:24.880Z,18.71
2022-09-22T13:57:34.656Z,18.73
2022-09-22T14:04:50.932Z,18.92
2022-09-22T14:08:11.133Z,18.95
2022-09-22T14:11:27.502Z,19.07
2022-09-22T14:14:29.398Z,19.08
2022-09-22T14:17:31.417Z,19.12
2022-09-22T14:20:38.044Z,19.13
2022-09-22T14:23:45.882Z,19.16
2022-09-22T14:27:03.057Z,19.20
2022-09-22T14:30:14.814Z,19.21
2022-09-22T14:33:25.644Z,19.22
2022-09-22T14:36:27.910Z,19.24
2022-09-22T14:39:34.280Z,19.24
2022-09-22T14:42:37.234Z,19.31
2022-09-22T14:45:56.911Z,19.32
2022-09-22T14:48:59.059Z,19.34
2022-09-22T14:52:01.538Z,19.35
2022-09-22T14:55:20.183Z,19.36
2022-09-22T14:58:27.990Z,19.33
2022-09-22T15:01:50.936Z,19.34
2022-09-22T15:04:53.805Z,19.30
2022-09-22T15:07:56.082Z,19.24
2022-09-22T15:11:01.061Z,19.26
2022-09-22T15:14:44.236Z,19.09
2022-09-22T15:18:10.440Z,19.23
2022-09-22T15:21:14.055Z,19.23
2022-09-22T15:24:21.362Z,19.11
2022-09-22T15:27:23.351Z,19.03
2022-09-22T15:30:26.181Z,19.17
2022-09-22T15:33:28.161Z,19.16
2022-09-22T15:36:32.965Z,19.18
2022-09-22T15:39:35.518Z,19.16
2022-09-22T15:42:48.183Z,19.15
2022-09-22T15:46:04.990Z,19.13
2022-09-22T15:49:14.043Z,19.10
2022-09-22T15:52:16.123Z,19.06
2022-09-22T15:55:20.847Z,19.00
2022-09-22T15:58:23.327Z,18.92
2022-09-22T16:01:29.486Z,18.91
2022-09-22T16:04:34.291Z,18.94
2022-09-22T16:07:38.523Z,19.00
2022-09-22T16:10:42.114Z,19.05
2022-09-22T16:13:44.595Z,19.06
2022-09-22T16:16:46.525Z,19.08
2022-09-22T16:19:48.411Z,19.08
2022-09-22T16:22:50.893Z,19.07
2022-09-22T16:25:53.372Z,19.08
2022-09-22T16:28:56.269Z,19.04
2022-09-22T16:31:58.798Z,19.04
2022-09-22T16:35:00.706Z,19.05
2022-09-22T16:38:03.635Z,19.04
2022-09-22T16:41:17.145Z,19.04
2022-09-22T16:44:19.118Z,19.02
2022-09-22T16:47:22.835Z,19.00
2022-09-22T16:50:25.029Z,19.01
2022-09-22T16:53:27.151Z,19.03
2022-09-22T16:56:31.010Z,19.01
2022-09-22T16:59:33.499Z,18.87
2022-09-22T17:02:36.078Z,19.04
2022-09-22T17:05:39.571Z,19.01
2022-09-22T17:08:43.928Z,18.88
2022-09-22T17:11:49.202Z,19.00
2022-09-22T17:14:51.243Z,18.99
2022-09-22T17:17:53.248Z,19.03
2022-09-22T17:20:55.211Z,18.97
2022-09-22T17:24:03.172Z,19.04
2022-09-22T17:27:05.648Z,19.04
2022-09-22T17:30:08.248Z,19.04
2022-09-22T17:33:10.271Z,19.03
2022-09-22T17:36:20.410Z,19.03
2022-09-22T17:39:24.703Z,19.03
2022-09-22T17:42:27.386Z,19.03
2022-09-22T17:45:29.333Z,19.03
2022-09-22T17:48:49.797Z,18.95
2022-09-22T17:52:10.207Z,18.99
2022-09-22T17:55:20.618Z,19.00
2022-09-22T17:58:22.824Z,18.99
2022-09-22T18:01:24.751Z,18.97
2022-09-22T18:04:27.862Z,18.99
2022-09-22T18:07:29.862Z,18.99
2022-09-22T18:10:34.756Z,18.95
2022-09-22T18:13:40.484Z,18.99
2022-09-22T18:16:42.580Z,18.97
2022-09-22T18:19:44.886Z,18.90
2022-09-22T18:22:48.080Z,18.94
2022-09-22T18:25:51.322Z,18.97
2022-09-22T18:28:54.139Z,18.95
2022-09-22T18:31:58.988Z,18.92
2022-09-22T18:35:01.235Z,18.96
2022-09-22T18:38:04.037Z,18.94
2022-09-22T18:41:05.929Z,18.94
2022-09-22T18:44:09.242Z,18.88
2022-09-22T18:47:14.948Z,18.91
2022-09-22T18:50:16.967Z,18.92
2022-09-22T18:53:22.178Z,18.92
2022-09-22T18:56:25.589Z,18.85
2022-09-22T18:59:27.656Z,18.90
2022-09-22T19:02:30.346Z,18.88
2022-09-22T19:05:32.394Z,18.87
2022-09-22T19:08:34.341Z,18.91
2022-09-22T19:11:36.351Z,18.90
2022-09-22T19:14:39.896Z,18.86
2022-09-22T19:17:46.203Z,18.91
2022-09-22T19:20:49.037Z,18.91
2022-09-22T19:23:51.162Z,18.87
2022-09-22T19:26:55.558Z,18.89
2022-09-22T19:29:58.076Z,18.85
2022-09-22T19:33:00.381Z,18.59
2022-09-22T19:36:02.429Z,18.89
2022-09-22T19:39:08.571Z,18.83
2022-09-22T19:42:10.669Z,18.80
2022-09-22T19:45:12.819Z,18.78
2022-09-22T19:48:15.395Z,18.80
2022-09-22T19:51:17.873Z,18.78
2022-09-22T19:54:21.062Z,18.74
2022-09-22T19:57:23.096Z,18.78
2022-09-22T20:00:28.130Z,18.56
2022-09-22T20:03:30.074Z,18.64
2022-09-22T20:06:33.710Z,18.61
2022-09-22T20:09:35.736Z,18.46
2022-09-22T20:12:37.679Z,18.41
2022-09-22T20:15:39.978Z,18.49
2022-09-22T20:18:42.012Z,18.59
2022-09-22T20:21:45.650Z,18.60
2022-09-22T20:24:54.139Z,18.66
2022-09-22T20:27:56.342Z,18.67
2022-09-22T20:30:58.466Z,18.72
2022-09-22T20:34:00.485Z,18.69
2022-09-22T20:37:02.367Z,18.62
2022-09-22T20:40:07.293Z,18.66
2022-09-22T20:43:12.422Z,18.69
2022-09-22T20:46:14.597Z,18.69
2022-09-22T20:49:19.555Z,18.72
2022-09-22T20:52:21.459Z,18.75
2022-09-22T20:55:23.435Z,18.68
2022-09-22T20:58:25.401Z,18.74
2022-09-22T21:01:27.408Z,18.71
2022-09-22T21:04:30.336Z,18.78
2022-09-22T21:07:32.748Z,18.78
2022-09-22T21:10:35.561Z,18.79
2022-09-22T21:13:37.869Z,18.77
2022-09-22T21:16:40.095Z,18.79
2022-09-22T21:19:42.079Z,18.79
2022-09-22T21:22:44.483Z,18.77
2022-09-22T21:26:00.582Z,18.74
2022-09-22T21:29:02.657Z,18.74
2022-09-22T21:32:05.102Z,18.71
2022-09-22T21:35:07.708Z,18.75
2022-09-22T21:38:09.637Z,18.71
2022-09-22T21:41:17.476Z,18.72
2022-09-22T21:44:19.377Z,18.75
2022-09-22T21:47:21.382Z,18.76
2022-09-22T21:50:23.414Z,18.77
2022-09-22T21:53:26.906Z,18.76
2022-09-22T21:56:30.267Z,18.75
2022-09-22T21:59:32.173Z,18.74
2022-09-22T22:02:54.070Z,18.73
2022-09-22T22:06:28.563Z,18.70
2022-09-22T22:09:30.464Z,18.40
2022-09-22T22:12:32.510Z,18.35
2022-09-22T22:15:34.786Z,18.35
2022-09-22T22:18:37.170Z,18.46
2022-09-22T22:21:43.728Z,18.52
2022-09-22T22:24:48.418Z,18.57
2022-09-22T22:27:50.500Z,18.59
2022-09-22T22:30:52.738Z,18.56
2022-09-22T22:33:55.430Z,18.59
2022-09-22T22:37:00.645Z,18.62
2022-09-22T22:40:02.646Z,18.63
2022-09-22T22:43:04.708Z,18.69
2022-09-22T22:46:08.176Z,18.70
2022-09-22T22:49:11.631Z,18.73
2022-09-22T22:52:13.689Z,18.72
2022-09-22T22:55:15.806Z,18.69
2022-09-22T22:58:17.842Z,18.68
2022-09-22T23:01:27.676Z,18.64
2022-09-22T23:04:29.621Z,18.64
2022-09-22T23:07:31.617Z,18.66
2022-09-22T23:10:34.511Z,18.72
2022-09-22T23:13:36.879Z,18.72
2022-09-22T23:16:44.109Z,18.67
2022-09-22T23:19:45.994Z,18.72
2022-09-22T23:22:49.252Z,18.70
2022-09-22T23:25:51.798Z,18.70
2022-09-22T23:28:54.672Z,18.61
2022-09-22T23:31:56.727Z,18.54
2022-09-22T23:34:58.657Z,18.68
2022-09-22T23:38:00.828Z,18.65
2022-09-22T23:41:03.822Z,18.68
2022-09-22T23:44:06.921Z,18.66
2022-09-22T23:47:12.184Z,18.64
2022-09-22T23:50:16.225Z,18.62
2022-09-22T23:53:20.353Z,18.66
2022-09-22T23:56:22.365Z,18.56
2022-09-22T23:59:24.250Z,18.59
